ADDS METAR Data INFO
IDs: Format: Raw Decoded Include TAF

Data at: 0112 UTC 24 Jun 2018

KDKB 240055Z AUTO 00000KT 10SM SCT120 23/17 A2979 RMK AO2 T02300170
KDKB 240035Z AUTO 00000KT 10SM SCT120 23/16 A2979 RMK AO2 T02310163
KDKB 240015Z AUTO 00000KT 10SM SCT120 23/17 A2979 RMK AO2 T02330171
KDKB 232355Z AUTO 00000KT 10SM CLR 24/17 A2979 RMK AO2 T02380168 10256 20229
KDKB 232335Z AUTO 00000KT 10SM BKN120 24/16 A2979 RMK AO2 T02410158
KDKB 232315Z AUTO 31003KT 10SM SCT120 25/15 A2979 RMK AO2 T02450153
KDKB 232255Z AUTO 29003KT 10SM CLR 25/15 A2978 RMK AO2 T02470152
KDKB 232235Z AUTO 29004KT 10SM CLR 25/15 A2978 RMK AO2 T02500145
KDKB 232215Z AUTO 30006KT 10SM CLR 25/15 A2979 RMK AO2 T02480153
KDKB 232155Z AUTO 30007KT 10SM CLR 25/16 A2979 RMK AO2 T02500157
KDKB 232135Z AUTO 33003KT 10SM CLR 26/16 A2979 RMK AO2 T02560157
KDKB 232115Z AUTO 35004KT 10SM SCT046 SCT055 25/16 A2978 RMK AO2 T02500155
KDKB 232055Z AUTO 29003KT 10SM SCT046 SCT055 25/16 A2979 RMK AO2 T02500160
KDKB 232035Z AUTO 36003KT 10SM SCT044 SCT049 25/16 A2979 RMK AO2 T02520155
KDKB 232015Z AUTO 01003KT 10SM SCT044 25/16 A2978 RMK AO2 T02540161
KDKB 231955Z AUTO 30005KT 10SM SCT041 SCT060 24/16 A2979 RMK AO2 T02410160
KDKB 231935Z AUTO 33003KT 10SM BKN039 BKN050 24/16 A2978 RMK AO2 T02420160
KDKB 231915Z AUTO 34005KT 10SM BKN037 BKN043 BKN050 24/16 A2978 RMK AO2 T02420164
KDKB 231855Z AUTO 00000KT 10SM SCT037 24/16 A2978 RMK AO2 T02350163
KDKB 231835Z AUTO 26003KT 10SM CLR 24/16 A2978 RMK AO2 T02430161
KDKB 231815Z AUTO 29004KT 10SM SCT033 24/16 A2978 RMK AO2 T02390161
KDKB 231755Z AUTO 00000KT 10SM BKN033 23/16 A2978 RMK AO2 T02300160 10236 20157
KDKB 231735Z AUTO 00000KT 10SM BKN031 BKN040 23/17 A2978 RMK AO2 T02320166
KDKB 231715Z AUTO 00000KT 10SM BKN031 BKN040 23/16 A2978 RMK AO2 T02260161
KDKB 231655Z AUTO 27003KT 10SM SCT040 23/16 A2978 RMK AO2 T02290164
KDKB 231635Z AUTO 32004KT 10SM SCT028 SCT034 22/16 A2978 RMK AO2 T02210163
KDKB 231615Z AUTO 29003KT 10SM BKN028 BKN034 23/16 A2978 RMK AO2 T02260162
KDKB 231555Z AUTO 00000KT 10SM SCT028 23/16 A2978 RMK AO2 T02250164
KDKB 231535Z AUTO 00000KT 10SM CLR 23/17 A2978 RMK AO2 T02250166
KDKB 231515Z AUTO 00000KT 10SM CLR 21/16 A2978 RMK AO2 T02140157
KDKB 231455Z AUTO 00000KT 10SM CLR 21/15 A2979 RMK AO2 T02080152
KDKB 231435Z AUTO 00000KT 10SM CLR 20/16 A2980 RMK AO2 T02030157
KDKB 231415Z AUTO 00000KT 10SM CLR 20/16 A2979 RMK AO2 T01980160
KDKB 231355Z AUTO 00000KT 10SM CLR 19/16 A2978 RMK AO2 T01940156
KDKB 231335Z AUTO 33004KT 10SM CLR 19/16 A2978 RMK AO2 T01910160
KDKB 231315Z AUTO 32004KT 10SM CLR 19/16 A2978 RMK AO2 T01860159
KDKB 231255Z AUTO 33006KT 10SM CLR 18/16 A2978 RMK AO2 T01810155
KDKB 231235Z AUTO 36003KT 10SM CLR 18/15 A2976 RMK AO2 T01750153
KDKB 231215Z AUTO 02006KT 10SM CLR 17/15 A2975 RMK AO2 T01660149
KDKB 231155Z AUTO 01004KT 10SM SCT060 16/15 A2974 RMK AO2 70045 T01560145 10160 20150
KDKB 231135Z AUTO 01004KT 10SM OVC050 15/14 A2975 RMK AO2 T01520143
KDKB 231115Z AUTO 02004KT 10SM SCT034 OVC050 16/14 A2975 RMK AO2 T01550141
KDKB 231055Z AUTO 35006KT 10SM OVC034 16/14 A2976 RMK AO2 T01550140
KDKB 231035Z AUTO 32006KT 10SM OVC036 16/14 A2977 RMK AO2 T01550140
KDKB 231015Z AUTO 31005KT 10SM OVC034 16/14 A2976 RMK AO2 T01560141
KDKB 230955Z AUTO 30006KT 10SM BKN037 OVC043 16/14 A2977 RMK AO2 T01560142
KDKB 230935Z AUTO 35005KT 10SM OVC037 16/15 A2975 RMK AO2 T01560145
KDKB 230915Z AUTO 32005KT 10SM SCT031 OVC037 16/15 A2976 RMK AO2 T01570146
KDKB 230855Z AUTO 32004KT 10SM OVC030 16/15 A2977 RMK AO2 T01560150
KDKB 230835Z AUTO 31003KT 10SM SCT018 OVC028 16/15 A2976 RMK AO2 T01560152
KDKB 230815Z AUTO 00000KT 10SM BKN018 OVC031 16/15 A2976 RMK AO2 T01570151
KDKB 230755Z AUTO 00000KT 10SM SCT018 OVC029 16/15 A2975 RMK AO2 T01550150
KDKB 230735Z AUTO 00000KT 10SM BKN016 OVC028 15/15 A2975 RMK AO2 T01510146
KDKB 230715Z AUTO 00000KT 10SM BKN016 OVC030 15/15 A2974 RMK AO2 T01500145
KDKB 230655Z AUTO 36003KT 10SM SCT012 OVC030 15/15 A2973 RMK AO2 T01530146
KDKB 230635Z AUTO 35003KT 10SM OVC012 16/15 A2975 RMK AO2 T01560150
KDKB 230615Z AUTO 01004KT 10SM BKN012 OVC033 16/15 A2974 RMK AO2 T01560150
KDKB 230555Z AUTO 03004KT 10SM SCT027 OVC033 16/15 A2974 RMK AO2 T01600152 10172 20160 401720145
KDKB 230535Z AUTO 05004KT 10SM BKN029 OVC033 16/15 A2975 RMK AO2 T01630152
KDKB 230515Z AUTO 04005KT 10SM OVC026 16/16 A2975 RMK AO2 T01630155
KDKB 230455Z AUTO 04006KT 10SM OVC022 17/16 A2975 RMK AO2 T01650155
KDKB 230435Z AUTO 04005KT 10SM OVC022 17/16 A2975 RMK AO2 T01660157
KDKB 230415Z AUTO 05004KT 10SM OVC022 17/16 A2975 RMK AO2 T01650157
KDKB 230355Z AUTO 04006KT 10SM BKN024 OVC032 17/16 A2976 RMK AO2 T01660157
KDKB 230335Z AUTO 03007KT 10SM OVC024 17/16 A2976 RMK AO2 T01670158
KDKB 230315Z AUTO 03007KT 10SM OVC020 17/16 A2976 RMK AO2 T01690160
KDKB 230255Z AUTO 03008KT 10SM OVC018 17/16 A2976 RMK AO2 T01690161
KDKB 230235Z AUTO 03010KT 10SM OVC016 17/16 A2976 RMK AO2 T01700160
KDKB 230215Z AUTO 04009KT 10SM BKN016 OVC021 17/16 A2975 RMK AO2 T01700155
KDKB 230155Z AUTO 03008KT 10SM OVC022 17/15 A2975 RMK AO2 T01700152
KDKB 230135Z AUTO 02007KT 10SM OVC022 17/16 A2975 RMK AO2 T01700155
KDKB 230115Z AUTO 04007KT 10SM OVC020 17/16 A2975 RMK AO2 T01720155
KDKB 230055Z AUTO 05006KT 10SM OVC017 17/16 A2975 RMK AO2 T01700160
KDKB 230035Z AUTO 01005KT 10SM OVC019 17/16 A2976 RMK AO2 T01670158
KDKB 230015Z AUTO 00000KT 10SM OVC017 17/16 A2976 RMK AO2 T01660156
KDKB 222355Z AUTO 00000KT 10SM OVC017 17/16 A2976 RMK AO2 LTG DSNT SE 60009 T01650155 10171 20155
KDKB 222335Z AUTO 01004KT 10SM OVC017 16/16 A2976 RMK AO2 T01630159
KDKB 222315Z AUTO 00000KT 10SM OVC017 16/16 A2976 RMK AO2 T01600156
KDKB 222255Z AUTO 03004KT 10SM SCT009 OVC017 16/15 A2976 RMK AO2 P0008 T01560152
KDKB 222235Z AUTO 04007KT 5SM DZ BKN007 OVC012 16/15 A2977 RMK AO2 P0007 T01550151
KDKB 222215Z AUTO 04009KT 3SM RA OVC007 16/15 A2977 RMK AO2 P0005 T01550152
KDKB 222155Z AUTO 04009KT 7SM RA OVC007 16/15 A2978 RMK AO2 P0001 T01590152
KDKB 222135Z AUTO 06009KT 10SM OVC009 16/15 A2977 RMK AO2 T01620152
KDKB 222115Z AUTO 06005KT 10SM OVC009 16/15 A2977 RMK AO2 T01630154
KDKB 222055Z AUTO 00000KT 10SM OVC009 17/16 A2977 RMK AO2 T01650155
KDKB 222035Z AUTO 07004KT 10SM OVC009 17/16 A2977 RMK AO2 T01650155
KDKB 222015Z AUTO 07004KT 10SM OVC009 17/16 A2977 RMK AO2 T01660156
KDKB 221955Z AUTO 06008KT 10SM OVC009 17/16 A2976 RMK AO2 LTG DSNT SE T01680156
KDKB 221935Z AUTO 07009KT 10SM OVC009 17/16 A2977 RMK AO2 T01700158
KDKB 221915Z AUTO 07008KT 10SM OVC009 17/16 A2976 RMK AO2 T01700159
KDKB 221855Z AUTO 06013G19KT 10SM OVC009 17/16 A2976 RMK AO2 T01670155
KDKB 221835Z AUTO 07008G20KT 10SM OVC009 17/16 A2975 RMK AO2 T01660155
KDKB 221815Z AUTO 06011G18KT 10SM OVC007 16/16 A2975 RMK AO2 T01630155
KDKB 221755Z AUTO 06017G20KT 10SM OVC007 16/15 A2975 RMK AO2 60036 T01620154 10164 20145
KDKB 221735Z AUTO 05016G20KT 10SM OVC007 16/16 A2976 RMK AO2 LTG DSNT SE T01610155
KDKB 221715Z AUTO 05014G18KT 10SM -RA OVC005 16/15 A2977 RMK AO2 T01560154
KDKB 221655Z AUTO 03012KT 10SM OVC005 15/15 A2978 RMK AO2 P0003 T01530151
KDKB 221635Z AUTO 03008KT 10SM -RA OVC005 15/15 A2979 RMK AO2 P0003 T01500148
KDKB 221615Z AUTO 02009KT 10SM -RA OVC005 15/15 A2979 RMK AO2 P0002 T01480146
KDKB 221555Z AUTO 03012KT 7SM -RA OVC005 15/15 A2979 RMK AO2 P0005 T01470145
KDKB 221535Z AUTO 02009G16KT 10SM -RA OVC005 15/15 A2980 RMK AO2 P0003 T01460145
KDKB 221515Z AUTO 02008KT 5SM RA OVC005 15/15 A2980 RMK AO2 P0002 T01470146
KDKB 221455Z AUTO 03010KT 5SM -RA OVC005 15/15 A2980 RMK AO2 P0011 60028 T01460145
KDKB 221435Z AUTO 02009KT 5SM RA OVC005 15/14 A2980 RMK AO2 P0008 T01450143
KDKB 221415Z AUTO 02011KT 4SM RA BKN005 BKN010 OVC016 15/15 A2980 RMK AO2 P0004 T01450145
KDKB 221355Z AUTO 03011G15KT 5SM -RA BKN007 BKN021 OVC034 15/15 A2980 RMK AO2 P0007 T01500147
KDKB 221335Z AUTO 05010KT 5SM RA BKN007 BKN020 OVC060 15/15 A2979 RMK AO2 P0003 T01540151
KDKB 221315Z AUTO 05011KT 10SM -RA BKN005 BKN020 OVC038 16/16 A2979 RMK AO2 T01580157